Time;durP1;ratioP1;P1;durP2;ratioP2;P2;SDS_P1;SDS_P2;PMS_P1;PMS_P2;Temp;Humidity;BMP_temperature;BMP_pressure;BME280_temperature;BME280_humidity;BME280_pressure;Samples;Min_cycle;Max_cycle;Signal;HPM_P1;HPM_P2
2020/12/05 00:01:51;;;;;;;21.88;10.30;;;2.50;76.60;;;;;;4997052;28;20084;-81
2020/12/05 00:04:17;;;;;;;16.35;9.07;;;2.50;76.40;;;;;;5014613;28;20044;-82
2020/12/05 00:06:43;;;;;;;19.60;9.27;;;2.50;76.50;;;;;;5021183;28;20034;-82
2020/12/05 00:09:10;;;;;;;17.42;9.93;;;2.50;77.10;;;;;;5015276;28;20475;-81
2020/12/05 00:11:36;;;;;;;19.50;10.40;;;2.50;76.60;;;;;;4996734;28;20049;-83
2020/12/05 00:14:04;;;;;;;20.13;10.25;;;2.50;76.50;;;;;;5014446;28;20053;-81
2020/12/05 00:16:30;;;;;;;20.30;10.38;;;2.50;76.60;;;;;;5014411;28;20033;-81
2020/12/05 00:18:56;;;;;;;21.33;9.98;;;2.50;76.70;;;;;;5014158;28;20041;-81
2020/12/05 00:21:24;;;;;;;25.13;11.35;;;2.50;76.60;;;;;;4996827;28;20065;-81
2020/12/05 00:23:50;;;;;;;21.05;10.45;;;2.50;76.60;;;;;;4996705;28;20168;-82
2020/12/05 00:26:21;;;;;;;19.88;10.07;;;2.50;76.60;;;;;;5014585;28;20046;-82
2020/12/05 00:28:48;;;;;;;18.80;9.15;;;2.50;76.70;;;;;;5014531;28;20064;-82
2020/12/05 00:31:15;;;;;;;18.83;10.18;;;2.50;76.80;;;;;;5014309;28;20108;-82
2020/12/05 00:33:42;;;;;;;21.85;9.88;;;2.40;76.90;;;;;;5012910;28;20092;-82
2020/12/05 00:36:16;;;;;;;24.27;10.70;;;2.50;76.90;;;;;;4997434;28;20038;-81
2020/12/05 00:38:42;;;;;;;20.05;10.00;;;2.50;76.80;;;;;;5014138;28;20124;-81
2020/12/05 00:41:12;;;;;;;21.33;9.85;;;2.50;76.90;;;;;;4996495;28;20441;-82
2020/12/05 00:43:38;;;;;;;20.65;9.77;;;2.50;76.90;;;;;;4980027;28;20041;-82
2020/12/05 00:46:05;;;;;;;22.83;10.63;;;2.50;77.00;;;;;;4996353;28;20037;-81
2020/12/05 00:48:31;;;;;;;21.50;10.88;;;2.50;77.10;;;;;;4996199;28;20042;-81
2020/12/05 00:50:58;;;;;;;22.77;10.90;;;2.50;77.10;;;;;;5013895;28;20176;-82
2020/12/05 00:53:24;;;;;;;23.65;11.30;;;2.50;77.10;;;;;;4996113;28;20038;-80
2020/12/05 00:55:51;;;;;;;19.92;10.43;;;2.50;77.10;;;;;;4996676;28;20034;-82
2020/12/05 00:58:17;;;;;;;19.73;10.85;;;2.40;77.30;;;;;;5013608;28;20483;-82
2020/12/05 01:00:43;;;;;;;22.20;10.80;;;2.50;77.30;;;;;;5013842;28;20120;-82
2020/12/05 01:03:09;;;;;;;20.42;10.55;;;2.50;77.20;;;;;;5013813;28;20041;-80
2020/12/05 01:05:36;;;;;;;20.83;10.10;;;2.50;77.10;;;;;;5013794;28;20061;-80
2020/12/05 01:08:04;;;;;;;21.33;10.88;;;2.40;77.10;;;;;;5013671;28;20030;-80
2020/12/05 01:10:30;;;;;;;22.42;10.98;;;2.50;77.10;;;;;;5013929;28;20041;-82
2020/12/05 01:12:56;;;;;;;19.77;10.55;;;2.40;77.20;;;;;;5013351;28;20050;-81
2020/12/05 01:15:22;;;;;;;22.00;10.75;;;2.40;77.10;;;;;;4995743;28;20075;-82
2020/12/05 01:17:48;;;;;;;25.13;11.35;;;2.40;77.90;;;;;;5013574;28;20038;-81
2020/12/05 01:20:14;;;;;;;23.90;10.90;;;2.40;77.10;;;;;;5014483;28;20033;-82
2020/12/05 01:22:40;;;;;;;27.90;11.25;;;2.40;77.10;;;;;;5013603;28;20030;-80
2020/12/05 01:25:08;;;;;;;21.80;11.00;;;2.40;77.20;;;;;;5013122;28;20045;-81
2020/12/05 01:27:34;;;;;;;19.02;9.57;;;2.40;77.00;;;;;;5013636;28;20103;-81
2020/12/05 01:30:00;;;;;;;22.60;11.05;;;2.40;77.00;;;;;;5013044;28;20428;-80
2020/12/05 01:32:26;;;;;;;22.63;11.55;;;2.40;76.90;;;;;;4995820;28;20034;-80
2020/12/05 01:34:52;;;;;;;21.63;10.75;;;2.40;77.00;;;;;;4995375;28;20054;-81
2020/12/05 01:37:18;;;;;;;18.95;9.05;;;2.40;76.90;;;;;;5012867;28;20044;-81
2020/12/05 01:39:44;;;;;;;23.77;11.02;;;2.40;76.90;;;;;;5013291;28;20029;-80
2020/12/05 01:42:10;;;;;;;25.42;11.68;;;2.30;76.90;;;;;;5013044;28;20603;-81
2020/12/05 01:44:36;;;;;;;27.90;11.95;;;2.30;77.00;;;;;;4994919;28;20050;-81
2020/12/05 01:47:02;;;;;;;20.77;10.10;;;2.30;77.00;;;;;;5013070;28;20042;-82
2020/12/05 01:49:29;;;;;;;22.10;11.45;;;2.30;76.80;;;;;;4995220;28;20038;-81
2020/12/05 01:51:56;;;;;;;24.67;11.43;;;2.30;76.70;;;;;;5012879;28;20048;-81
2020/12/05 01:54:22;;;;;;;21.60;11.02;;;2.30;76.70;;;;;;5012823;28;20508;-80
2020/12/05 01:57:03;;;;;;;23.45;12.18;;;2.30;76.70;;;;;;4995700;28;20038;-81
2020/12/05 01:59:29;;;;;;;22.90;11.20;;;2.30;76.50;;;;;;5012993;28;20038;-81
2020/12/05 02:02:03;;;;;;;22.85;10.93;;;2.30;76.40;;;;;;5012832;28;20116;-81
2020/12/05 02:04:30;;;;;;;20.60;10.13;;;2.30;76.40;;;;;;4995487;28;20497;-81
2020/12/05 02:07:21;;;;;;;21.77;10.05;;;2.30;76.20;;;;;;4995153;28;20493;-81
2020/12/05 02:09:51;;;;;;;26.58;11.30;;;2.30;76.10;;;;;;4994958;28;20072;-81
2020/12/05 02:12:46;;;;;;;20.83;11.02;;;2.30;76.10;;;;;;5012895;28;20046;-81
2020/12/05 02:15:19;;;;;;;26.13;11.65;;;2.20;76.00;;;;;;5013028;28;20073;-81
2020/12/05 02:18:08;;;;;;;25.10;10.50;;;2.30;76.00;;;;;;4980788;28;20378;-83
2020/12/05 02:20:38;;;;;;;23.50;12.00;;;2.30;75.70;;;;;;4996945;28;20041;-81
2020/12/05 02:23:18;;;;;;;23.83;11.95;;;2.20;75.60;;;;;;4995353;28;20042;-81
2020/12/05 02:26:06;;;;;;;24.80;10.70;;;2.20;75.60;;;;;;4995215;28;20038;-81
2020/12/05 02:28:35;;;;;;;22.73;11.25;;;2.20;75.20;;;;;;5012555;28;20033;-81
2020/12/05 02:31:01;;;;;;;21.75;11.05;;;2.20;75.30;;;;;;5014206;28;20053;-80
2020/12/05 02:33:27;;;;;;;22.95;11.10;;;2.20;75.30;;;;;;5015580;28;20045;-81
2020/12/05 02:35:53;;;;;;;25.35;11.23;;;2.10;75.00;;;;;;5012623;28;20065;-81
2020/12/05 02:38:38;;;;;;;23.95;11.60;;;2.10;74.70;;;;;;5013665;28;20076;-79
2020/12/05 02:41:04;;;;;;;21.65;10.45;;;2.20;74.50;;;;;;5012656;28;20036;-81
2020/12/05 02:43:33;;;;;;;24.90;12.05;;;2.20;74.30;;;;;;5012611;28;20030;-81
2020/12/05 02:45:59;;;;;;;23.83;11.05;;;2.20;74.10;;;;;;5012703;28;20067;-81
2020/12/05 02:48:24;;;;;;;21.33;11.13;;;2.10;73.70;;;;;;4995345;28;20041;-80
2020/12/05 02:50:50;;;;;;;23.25;11.38;;;2.10;73.70;;;;;;5012606;28;20184;-80
2020/12/05 02:53:16;;;;;;;17.52;9.15;;;2.10;73.70;;;;;;5012410;28;20041;-81
2020/12/05 02:55:42;;;;;;;25.33;11.38;;;2.10;73.60;;;;;;5012949;28;20121;-81
2020/12/05 02:58:08;;;;;;;21.85;10.98;;;2.10;73.30;;;;;;4998274;28;20045;-81
2020/12/05 03:00:34;;;;;;;20.02;10.90;;;2.00;73.00;;;;;;4998072;28;20041;-81
2020/12/05 03:03:02;;;;;;;19.40;10.43;;;2.10;73.20;;;;;;5016162;28;20041;-81
2020/12/05 03:05:28;;;;;;;20.45;11.23;;;2.00;72.80;;;;;;5015438;28;20034;-81
2020/12/05 03:07:54;;;;;;;18.27;9.73;;;2.00;73.00;;;;;;5015530;28;20040;-81
2020/12/05 03:10:20;;;;;;;18.25;10.40;;;2.00;73.00;;;;;;5015676;28;20121;-81
2020/12/05 03:12:46;;;;;;;20.83;10.18;;;2.00;72.80;;;;;;5015541;28;20033;-81
2020/12/05 03:15:12;;;;;;;17.40;9.50;;;2.00;72.60;;;;;;5015269;28;20037;-81
2020/12/05 03:17:38;;;;;;;21.17;11.63;;;2.00;72.60;;;;;;4997982;28;20393;-82
2020/12/05 03:20:06;;;;;;;19.70;10.82;;;2.00;72.50;;;;;;5015234;28;20041;-82
2020/12/05 03:22:32;;;;;;;20.38;10.63;;;2.00;72.50;;;;;;4981727;28;20037;-81
2020/12/05 03:24:58;;;;;;;20.25;10.73;;;2.00;72.30;;;;;;5015351;28;20108;-81
2020/12/05 03:27:24;;;;;;;22.25;10.73;;;1.90;72.30;;;;;;5015629;28;20034;-80
2020/12/05 03:29:51;;;;;;;21.73;11.43;;;1.90;72.00;;;;;;5016239;28;20029;-81
2020/12/05 03:32:24;;;;;;;20.73;11.35;;;1.90;72.00;;;;;;5017005;28;20440;-82
2020/12/05 03:34:51;;;;;;;20.23;10.43;;;1.90;71.90;;;;;;5016350;28;20061;-81
2020/12/05 03:37:19;;;;;;;21.15;10.77;;;1.80;72.00;;;;;;4998596;28;20048;-81
2020/12/05 03:39:45;;;;;;;24.05;10.63;;;1.80;71.90;;;;;;4997561;28;20038;-82
2020/12/05 03:42:11;;;;;;;20.58;10.85;;;1.90;71.70;;;;;;5015134;28;20103;-82
2020/12/05 03:44:37;;;;;;;20.52;10.82;;;1.80;71.70;;;;;;5018441;28;20061;-80
2020/12/05 03:47:03;;;;;;;19.00;10.63;;;1.80;71.70;;;;;;5015468;28;20072;-82
2020/12/05 03:49:32;;;;;;;22.02;10.63;;;1.70;71.60;;;;;;5014640;28;20120;-81
2020/12/05 03:52:02;;;;;;;18.25;10.40;;;1.80;71.70;;;;;;5014885;28;20041;-81
2020/12/05 03:54:29;;;;;;;21.70;10.95;;;1.70;71.60;;;;;;5014725;28;20129;-80
2020/12/05 03:56:55;;;;;;;17.48;9.82;;;1.80;71.60;;;;;;5015037;28;20123;-79
2020/12/05 03:59:21;;;;;;;21.70;10.95;;;1.80;71.50;;;;;;5015055;28;20038;-80
2020/12/05 04:01:47;;;;;;;21.45;11.05;;;1.80;71.60;;;;;;5015038;28;20041;-81
2020/12/05 04:04:13;;;;;;;18.92;10.18;;;1.70;71.60;;;;;;4997324;28;20042;-81
2020/12/05 04:06:39;;;;;;;26.52;11.68;;;1.70;71.60;;;;;;5014284;28;20041;-81
2020/12/05 04:09:05;;;;;;;19.15;10.05;;;1.70;71.60;;;;;;4996865;28;20034;-80
2020/12/05 04:11:32;;;;;;;23.08;11.00;;;1.70;71.50;;;;;;4997479;28;20041;-81
2020/12/05 04:13:58;;;;;;;21.50;9.82;;;1.70;71.60;;;;;;5014132;28;20501;-82
2020/12/05 04:16:25;;;;;;;21.15;10.23;;;1.70;71.70;;;;;;5014448;28;20107;-81
2020/12/05 04:18:51;;;;;;;21.67;10.73;;;1.70;71.60;;;;;;4996625;28;20509;-81
2020/12/05 04:21:17;;;;;;;21.77;10.57;;;1.60;71.80;;;;;;5014295;28;20100;-81
2020/12/05 04:23:42;;;;;;;24.67;11.98;;;1.60;71.70;;;;;;5014204;28;20044;-80
2020/12/05 04:26:09;;;;;;;21.20;11.02;;;1.60;71.70;;;;;;5014039;28;20032;-81
2020/12/05 04:28:35;;;;;;;23.00;10.57;;;1.60;71.80;;;;;;4996408;28;20489;-81
2020/12/05 04:31:01;;;;;;;23.50;10.20;;;1.60;72.00;;;;;;4996433;28;20041;-81
2020/12/05 04:33:27;;;;;;;19.83;10.15;;;1.50;71.80;;;;;;4996148;28;20045;-81
2020/12/05 04:35:53;;;;;;;22.88;10.85;;;1.50;71.70;;;;;;5014220;28;20200;-81
2020/12/05 04:38:22;;;;;;;20.38;10.45;;;1.50;71.80;;;;;;5014400;28;20042;-82
2020/12/05 04:40:48;;;;;;;20.13;10.50;;;1.50;71.60;;;;;;4996265;28;20030;-81
2020/12/05 04:43:14;;;;;;;22.92;10.55;;;1.50;71.50;;;;;;5014374;28;20069;-81
2020/12/05 04:45:42;;;;;;;21.08;10.68;;;1.50;71.50;;;;;;4980150;28;20042;-80
2020/12/05 04:48:09;;;;;;;23.95;11.00;;;1.50;71.30;;;;;;4996202;28;20069;-81
2020/12/05 04:50:35;;;;;;;19.75;10.10;;;1.50;71.20;;;;;;5013861;28;20350;-81
2020/12/05 04:53:15;;;;;;;23.63;11.88;;;1.50;71.20;;;;;;5013644;28;20041;-81
2020/12/05 04:55:43;;;;;;;21.77;11.48;;;1.50;71.20;;;;;;5015892;28;20132;-81
2020/12/05 04:58:22;;;;;;;19.48;9.82;;;1.50;71.10;;;;;;5017830;28;20037;-82
2020/12/05 05:00:57;;;;;;;19.92;10.23;;;1.50;71.10;;;;;;4980301;28;20033;-81
2020/12/05 05:03:25;;;;;;;22.08;10.73;;;1.50;71.00;;;;;;5014096;28;20140;-80
2020/12/05 05:05:53;;;;;;;24.10;10.52;;;1.50;70.90;;;;;;5013400;28;20045;-81
2020/12/05 05:08:19;;;;;;;22.75;10.45;;;1.50;70.90;;;;;;5013418;28;20026;-80
2020/12/05 05:10:45;;;;;;;19.65;11.10;;;1.40;70.70;;;;;;4979585;28;20068;-81
2020/12/05 05:13:21;;;;;;;22.23;11.07;;;1.40;70.80;;;;;;5013349;28;20033;-81
2020/12/05 05:15:47;;;;;;;22.17;11.45;;;1.40;70.70;;;;;;4995839;28;20046;-81
2020/12/05 05:18:13;;;;;;;22.20;10.57;;;1.40;70.60;;;;;;5012872;28;20069;-80
2020/12/05 05:20:42;;;;;;;21.80;11.18;;;1.40;70.50;;;;;;5012838;28;20104;-81
2020/12/05 05:23:15;;;;;;;23.23;11.40;;;1.40;70.60;;;;;;4980190;28;20046;-82
2020/12/05 05:25:50;;;;;;;25.83;12.90;;;1.40;70.50;;;;;;5017729;28;20038;-80
2020/12/05 05:28:31;;;;;;;20.15;10.98;;;1.30;70.40;;;;;;5001304;28;20511;-82
2020/12/05 05:31:04;;;;;;;21.60;11.50;;;1.30;70.20;;;;;;5014082;28;20383;-80
2020/12/05 05:33:47;;;;;;;22.60;11.02;;;1.30;70.10;;;;;;4994729;28;20033;-82
2020/12/05 05:36:15;;;;;;;21.90;10.27;;;1.30;70.20;;;;;;5000839;28;20040;-81
2020/12/05 05:38:43;;;;;;;19.45;9.75;;;1.30;70.10;;;;;;5012596;28;20042;-81
2020/12/05 05:41:20;;;;;;;20.75;11.13;;;1.30;70.00;;;;;;5012625;28;20056;-82
2020/12/05 05:43:54;;;;;;;18.35;10.32;;;1.30;70.10;;;;;;5012402;28;20047;-81
2020/12/05 05:46:28;;;;;;;18.00;9.38;;;1.30;70.00;;;;;;4994261;28;20045;-81
2020/12/05 05:48:58;;;;;;;23.33;11.05;;;1.30;69.80;;;;;;5010713;28;20065;-84
2020/12/05 05:51:48;;;;;;;24.33;11.95;;;1.30;69.70;;;;;;5012047;28;20148;-80
2020/12/05 05:54:20;;;;;;;18.88;10.50;;;1.30;69.60;;;;;;5010375;28;20046;-82
2020/12/05 05:57:10;;;;;;;20.75;10.77;;;1.30;69.70;;;;;;5012274;28;20059;-81
2020/12/05 05:59:39;;;;;;;18.17;10.10;;;1.30;69.70;;;;;;5010755;28;20108;-81
2020/12/05 06:02:08;;;;;;;20.55;10.75;;;1.30;69.60;;;;;;4994734;28;20374;-82
2020/12/05 06:04:41;;;;;;;20.10;10.15;;;1.30;69.40;;;;;;4994769;28;20116;-82
2020/12/05 06:07:16;;;;;;;19.77;10.93;;;1.40;69.40;;;;;;4994960;28;20080;-81
2020/12/05 06:09:52;;;;;;;20.43;10.43;;;1.30;69.20;;;;;;5014186;28;20529;-83
2020/12/05 06:12:20;;;;;;;22.38;11.23;;;1.30;69.20;;;;;;5010732;28;20457;-83
2020/12/05 06:14:48;;;;;;;19.02;10.68;;;1.30;69.10;;;;;;5005443;28;20128;-82
2020/12/05 06:17:16;;;;;;;21.25;10.80;;;1.30;69.00;;;;;;5011988;28;20037;-82
2020/12/05 06:19:45;;;;;;;25.98;11.02;;;1.30;68.90;;;;;;5012461;28;20040;-82
2020/12/05 06:22:20;;;;;;;21.05;10.27;;;1.40;69.00;;;;;;5012006;28;20037;-81
2020/12/05 06:24:58;;;;;;;19.13;10.85;;;1.40;68.90;;;;;;5005680;28;20042;-81
2020/12/05 06:27:26;;;;;;;20.20;11.57;;;1.40;68.90;;;;;;4975562;28;20084;-82
2020/12/05 06:29:53;;;;;;;22.27;11.15;;;1.40;68.70;;;;;;5005593;28;20497;-80
2020/12/05 06:32:38;;;;;;;21.50;10.30;;;1.40;68.80;;;;;;4998135;28;20033;-83
2020/12/05 06:35:25;;;;;;;20.50;11.25;;;1.40;68.50;;;;;;4996531;28;20073;-80
2020/12/05 06:37:53;;;;;;;22.17;10.93;;;1.40;68.60;;;;;;4996648;28;20042;-82
2020/12/05 06:40:20;;;;;;;20.33;11.45;;;1.40;68.60;;;;;;4996469;28;20085;-82
2020/12/05 06:42:49;;;;;;;26.17;11.82;;;1.40;68.50;;;;;;4996606;28;20045;-81
2020/12/05 06:45:27;;;;;;;20.27;10.40;;;1.50;68.30;;;;;;4996619;28;20038;-81
2020/12/05 06:48:15;;;;;;;20.92;10.80;;;1.50;68.10;;;;;;4996350;28;20050;-82
2020/12/05 06:50:43;;;;;;;20.63;11.68;;;1.50;68.10;;;;;;4995928;28;20049;-82
2020/12/05 06:53:21;;;;;;;23.55;11.45;;;1.40;68.10;;;;;;4997281;28;20046;-79
2020/12/05 06:55:49;;;;;;;21.35;10.45;;;1.50;68.10;;;;;;4998759;28;20491;-81
2020/12/05 06:58:24;;;;;;;21.55;10.93;;;1.50;67.80;;;;;;5020437;28;20053;-79
2020/12/05 07:00:54;;;;;;;23.00;11.32;;;1.50;67.80;;;;;;4984055;28;20061;-80
2020/12/05 07:03:28;;;;;;;28.15;12.07;;;1.60;67.70;;;;;;4982098;28;20428;-79
2020/12/05 07:05:54;;;;;;;22.27;12.30;;;1.50;67.70;;;;;;4998841;28;20029;-79
2020/12/05 07:08:34;;;;;;;28.80;12.98;;;1.60;67.70;;;;;;4997933;28;20042;-79
2020/12/05 07:11:10;;;;;;;20.55;10.77;;;1.50;67.40;;;;;;4998110;28;20064;-80
2020/12/05 07:13:50;;;;;;;24.00;11.38;;;1.50;67.30;;;;;;5015154;28;20038;-81
2020/12/05 07:16:23;;;;;;;22.58;11.27;;;1.50;67.40;;;;;;5015944;28;20342;-79
2020/12/05 07:18:54;;;;;;;23.98;11.93;;;1.60;67.50;;;;;;5015753;28;20073;-80
2020/12/05 07:21:22;;;;;;;23.90;12.23;;;1.60;67.50;;;;;;5016149;28;20497;-79
2020/12/05 07:23:48;;;;;;;21.80;11.18;;;1.60;67.20;;;;;;5016143;28;20030;-79
2020/12/05 07:26:15;;;;;;;25.60;12.80;;;1.60;67.10;;;;;;5015411;28;20405;-81
2020/12/05 07:28:51;;;;;;;21.05;10.52;;;1.60;67.30;;;;;;5015351;28;20117;-81
2020/12/05 07:31:18;;;;;;;23.45;11.27;;;1.60;67.10;;;;;;5015539;28;20040;-81
2020/12/05 07:33:44;;;;;;;22.98;12.13;;;1.60;67.10;;;;;;5014909;28;20539;-79
2020/12/05 07:36:12;;;;;;;23.20;12.27;;;1.60;67.30;;;;;;4997814;28;20050;-79
2020/12/05 07:38:43;;;;;;;25.63;11.52;;;1.60;67.10;;;;;;5014804;28;20040;-79
2020/12/05 07:41:20;;;;;;;21.85;11.05;;;1.70;67.20;;;;;;4997875;28;20034;-80
2020/12/05 07:43:55;;;;;;;27.95;12.70;;;1.80;67.10;;;;;;5015760;28;20160;-84
2020/12/05 07:46:20;;;;;;;24.80;11.75;;;1.90;66.80;;;;;;4983206;28;20041;-86
2020/12/05 07:48:46;;;;;;;25.17;11.82;;;1.60;68.20;;;;;;5020318;28;20500;-84
2020/12/05 07:51:15;;;;;;;24.50;13.07;;;1.60;70.20;;;;;;4998613;28;20437;-87
2020/12/05 07:53:42;;;;;;;24.13;12.20;;;1.60;72.50;;;;;;5020165;28;20037;-85
2020/12/05 07:56:12;;;;;;;20.85;11.25;;;1.60;74.00;;;;;;5015333;28;20559;-83
2020/12/05 07:58:52;;;;;;;16.77;10.13;;;1.50;76.10;;;;;;4999411;28;20495;-80
2020/12/05 08:01:57;;;;;;;24.08;11.32;;;1.60;76.90;;;;;;5014722;28;20049;-83
2020/12/05 08:04:35;;;;;;;20.88;11.00;;;1.70;77.40;;;;;;5014572;28;20038;-84
2020/12/05 08:07:13;;;;;;;19.88;10.73;;;1.70;77.60;;;;;;5016112;28;20034;-88
2020/12/05 08:09:39;;;;;;;19.48;11.00;;;1.80;77.40;;;;;;4995654;28;20006;-84
2020/12/05 08:12:20;;;;;;;21.38;10.77;;;1.90;77.70;;;;;;5023359;28;20445;-84
2020/12/05 08:14:47;;;;;;;24.90;11.55;;;1.80;77.60;;;;;;5000911;28;20072;-87
2020/12/05 08:17:13;;;;;;;23.52;11.88;;;1.80;77.40;;;;;;5018925;28;20044;-85
2020/12/05 08:19:42;;;;;;;22.02;11.68;;;1.80;77.30;;;;;;5015791;28;20032;-82
2020/12/05 08:22:08;;;;;;;21.20;11.20;;;1.90;76.60;;;;;;4996614;28;20041;-83
2020/12/05 08:24:53;;;;;;;19.95;11.68;;;1.90;76.30;;;;;;5019760;28;20045;-90
2020/12/05 08:27:27;;;;;;;24.17;12.32;;;1.90;76.00;;;;;;5091812;23;20080;-88
2020/12/05 08:30:28;;;;;;;22.58;11.55;;;2.20;75.00;;;;;;5055783;28;20021;-87
2020/12/05 08:33:06;;;;;;;24.27;11.05;;;2.20;74.20;;;;;;5044423;28;20091;-84
2020/12/05 08:35:34;;;;;;;18.38;10.20;;;2.40;73.10;;;;;;5038769;28;20026;-84
2020/12/05 08:38:03;;;;;;;23.20;11.65;;;2.50;72.40;;;;;;5034977;28;20033;-81
2020/12/05 08:40:30;;;;;;;21.25;11.60;;;2.50;71.50;;;;;;5032701;28;20030;-82
2020/12/05 08:42:57;;;;;;;21.58;10.93;;;2.60;70.80;;;;;;5033990;28;20060;-84
2020/12/05 08:45:23;;;;;;;21.63;12.13;;;2.60;70.30;;;;;;5034578;28;20025;-83
2020/12/05 08:47:51;;;;;;;24.33;12.10;;;2.60;69.80;;;;;;5033728;28;20025;-84
2020/12/05 08:50:37;;;;;;;21.83;11.25;;;2.60;69.20;;;;;;5033589;28;20395;-84
2020/12/05 08:53:03;;;;;;;23.88;11.93;;;2.70;69.00;;;;;;5032849;28;20029;-81
2020/12/05 08:55:30;;;;;;;17.17;10.88;;;2.60;68.50;;;;;;5033328;28;20025;-82
2020/12/05 08:57:59;;;;;;;21.67;12.23;;;2.60;68.30;;;;;;5032283;28;20060;-80
2020/12/05 09:00:30;;;;;;;20.08;11.00;;;2.60;68.30;;;;;;5032060;28;20053;-80
2020/12/05 09:02:56;;;;;;;20.23;11.13;;;2.70;67.70;;;;;;5032900;28;20036;-81
2020/12/05 09:05:23;;;;;;;22.27;11.60;;;2.70;67.60;;;;;;5035666;28;20045;-88
2020/12/05 09:08:20;;;;;;;20.90;11.52;;;2.70;67.60;;;;;;5042845;28;20017;-88
2020/12/05 09:10:46;;;;;;;20.42;10.38;;;2.70;67.20;;;;;;5039510;28;20107;-83
2020/12/05 09:13:12;;;;;;;17.90;10.07;;;2.70;67.00;;;;;;5032914;28;20171;-87
2020/12/05 09:15:55;;;;;;;19.88;10.70;;;2.70;66.80;;;;;;5042958;28;20048;-89
2020/12/05 09:18:21;;;;;;;23.23;12.02;;;2.70;66.70;;;;;;5041671;28;20112;-89
2020/12/05 09:20:47;;;;;;;21.95;12.27;;;2.70;66.80;;;;;;5042858;28;20064;-83
2020/12/05 09:23:13;;;;;;;22.45;11.88;;;2.70;66.70;;;;;;5035533;28;20033;-83
2020/12/05 09:25:40;;;;;;;22.40;11.90;;;2.70;66.70;;;;;;5037523;28;20055;-86
2020/12/05 09:28:10;;;;;;;23.42;11.30;;;2.60;66.80;;;;;;5047414;28;20059;-84
2020/12/05 09:30:39;;;;;;;24.02;11.93;;;2.60;66.60;;;;;;5039835;28;20025;-83
2020/12/05 09:33:15;;;;;;;21.90;11.70;;;2.60;66.60;;;;;;5035628;28;20124;-83
2020/12/05 09:35:42;;;;;;;18.83;11.13;;;2.60;66.60;;;;;;5037373;28;20093;-86
2020/12/05 09:38:08;;;;;;;23.33;12.02;;;2.60;66.40;;;;;;5033202;28;20030;-84
2020/12/05 09:40:34;;;;;;;25.13;11.40;;;2.60;66.40;;;;;;5038706;28;20026;-87
2020/12/05 09:43:00;;;;;;;22.13;11.90;;;2.60;66.50;;;;;;5015910;28;20571;-88
2020/12/05 09:45:27;;;;;;;23.23;12.43;;;2.50;66.50;;;;;;5043127;28;20029;-90
2020/12/05 09:47:53;;;;;;;19.95;9.80;;;2.60;66.40;;;;;;5047066;28;20081;-89
2020/12/05 09:50:20;;;;;;;21.30;11.10;;;2.60;66.30;;;;;;5048087;28;20078;-82
2020/12/05 09:52:46;;;;;;;21.95;12.02;;;2.60;66.20;;;;;;5032595;28;20060;-84
2020/12/05 09:55:12;;;;;;;22.30;11.48;;;2.50;66.20;;;;;;5032575;28;20075;-85
2020/12/05 09:57:38;;;;;;;22.10;10.50;;;2.60;66.20;;;;;;5031656;28;20021;-84
2020/12/05 10:00:08;;;;;;;19.25;10.82;;;2.40;65.40;;;;;;5015214;28;20054;-85
2020/12/05 10:02:37;;;;;;;23.70;12.05;;;2.30;65.80;;;;;;5033409;28;20026;-84
2020/12/05 10:05:04;;;;;;;24.38;12.40;;;2.30;65.50;;;;;;5033968;28;20026;-84
2020/12/05 10:07:30;;;;;;;24.65;11.23;;;2.40;65.30;;;;;;5035181;28;20385;-84
2020/12/05 10:09:56;;;;;;;23.45;11.55;;;2.30;65.10;;;;;;5036663;28;20108;-85
2020/12/05 10:12:22;;;;;;;22.95;11.23;;;2.20;65.30;;;;;;5038867;28;20538;-83
2020/12/05 10:14:48;;;;;;;20.85;10.93;;;2.10;64.70;;;;;;5038410;28;20035;-84
2020/12/05 10:17:14;;;;;;;20.23;10.93;;;2.00;64.90;;;;;;5037419;28;20048;-84
2020/12/05 10:19:40;;;;;;;20.88;9.57;;;1.90;65.30;;;;;;5036123;28;20022;-84
2020/12/05 10:22:06;;;;;;;19.85;11.65;;;1.80;64.70;;;;;;5036528;28;20099;-84
2020/12/05 10:24:33;;;;;;;22.65;11.75;;;1.80;65.10;;;;;;5036541;28;20342;-85
2020/12/05 10:26:59;;;;;;;19.45;11.00;;;1.90;65.00;;;;;;5034820;28;20044;-84
2020/12/05 10:29:25;;;;;;;22.35;10.88;;;2.00;64.90;;;;;;5036037;28;20144;-86
2020/12/05 10:31:52;;;;;;;21.10;11.43;;;2.10;64.70;;;;;;5035942;28;20040;-84
2020/12/05 10:34:22;;;;;;;21.02;12.15;;;2.10;64.70;;;;;;5036049;28;20079;-85
2020/12/05 10:36:49;;;;;;;19.70;11.18;;;1.90;64.70;;;;;;5039221;28;20037;-85
2020/12/05 10:39:15;;;;;;;18.42;10.80;;;1.90;64.70;;;;;;5036527;28;20415;-84
2020/12/05 10:41:41;;;;;;;20.13;11.07;;;1.80;65.00;;;;;;5036349;28;20037;-85
2020/12/05 10:44:09;;;;;;;19.77;10.57;;;1.80;65.10;;;;;;5034772;28;20033;-84
2020/12/05 10:46:48;;;;;;;20.50;11.38;;;1.90;65.10;;;;;;5036173;28;20030;-85
2020/12/05 10:49:14;;;;;;;20.20;10.63;;;1.90;64.70;;;;;;5034402;28;20040;-85
2020/12/05 10:51:40;;;;;;;16.85;10.27;;;2.00;65.20;;;;;;5035905;28;20101;-85
2020/12/05 10:54:07;;;;;;;16.48;9.52;;;1.90;64.60;;;;;;5017814;28;20049;-85
2020/12/05 10:56:34;;;;;;;20.58;10.55;;;1.90;64.40;;;;;;5035671;28;20116;-84
2020/12/05 10:59:00;;;;;;;21.13;10.10;;;1.90;64.10;;;;;;5034456;28;20358;-83
2020/12/05 11:01:26;;;;;;;19.52;10.55;;;1.80;64.30;;;;;;5037516;28;20022;-85
2020/12/05 11:03:52;;;;;;;17.90;9.57;;;1.90;64.40;;;;;;5035996;28;20033;-85
2020/12/05 11:06:22;;;;;;;18.05;9.80;;;1.90;64.10;;;;;;5034228;28;20025;-86
2020/12/05 11:08:48;;;;;;;18.23;9.90;;;1.80;64.30;;;;;;5034388;28;20060;-85
2020/12/05 11:11:15;;;;;;;17.58;10.40;;;1.80;64.00;;;;;;5035481;28;20056;-87
2020/12/05 11:13:42;;;;;;;19.70;9.85;;;1.80;64.40;;;;;;5035257;28;20048;-86
2020/12/05 11:16:08;;;;;;;20.13;10.63;;;1.80;64.30;;;;;;5032933;28;20033;-84
2020/12/05 11:18:34;;;;;;;16.05;9.35;;;1.80;63.90;;;;;;5033764;28;20033;-86
2020/12/05 11:21:00;;;;;;;20.40;10.60;;;1.90;64.20;;;;;;5034049;28;20056;-86
2020/12/05 11:23:26;;;;;;;17.10;8.73;;;1.90;64.00;;;;;;5034071;28;20035;-86
2020/12/05 11:25:51;;;;;;;22.05;11.32;;;1.80;63.60;;;;;;5034500;28;20108;-86
2020/12/05 11:28:17;;;;;;;22.73;10.15;;;1.70;64.10;;;;;;5035721;28;20084;-85
2020/12/05 11:30:43;;;;;;;20.42;10.68;;;1.70;64.00;;;;;;5035572;28;20087;-85
2020/12/05 11:33:09;;;;;;;20.42;11.75;;;1.70;64.40;;;;;;5033859;28;20065;-85
2020/12/05 11:35:36;;;;;;;19.85;11.20;;;1.80;64.30;;;;;;5034790;28;20025;-85
2020/12/05 11:38:02;;;;;;;22.13;10.95;;;1.80;64.10;;;;;;5034635;28;20611;-84
2020/12/05 11:40:29;;;;;;;20.75;11.20;;;1.80;63.90;;;;;;5034040;28;20059;-85
2020/12/05 11:42:55;;;;;;;23.45;10.85;;;1.80;63.90;;;;;;5035864;28;20036;-84
2020/12/05 11:45:21;;;;;;;17.95;9.98;;;1.70;63.60;;;;;;5034890;28;20033;-82
2020/12/05 11:47:47;;;;;;;23.02;12.20;;;1.70;63.70;;;;;;5034231;28;20064;-85
2020/12/05 11:50:13;;;;;;;20.23;11.23;;;1.70;63.90;;;;;;5034936;28;20041;-85
2020/12/05 11:52:39;;;;;;;21.85;12.18;;;1.70;63.10;;;;;;5034375;28;20045;-83
2020/12/05 11:55:05;;;;;;;24.83;12.05;;;1.80;63.30;;;;;;5033498;28;20530;-83
2020/12/05 11:57:30;;;;;;;25.00;12.73;;;1.70;63.40;;;;;;5033184;28;20108;-84
2020/12/05 11:59:56;;;;;;;25.35;11.95;;;1.70;63.20;;;;;;5033283;28;20079;-84
2020/12/05 12:02:22;;;;;;;23.13;12.25;;;1.80;63.30;;;;;;5034486;28;20029;-84
2020/12/05 12:04:48;;;;;;;27.45;12.85;;;1.80;63.10;;;;;;5035053;28;20033;-84
2020/12/05 12:07:14;;;;;;;29.60;12.55;;;1.80;63.00;;;;;;5034327;28;20112;-85
2020/12/05 12:09:40;;;;;;;23.92;11.73;;;1.70;62.80;;;;;;5034149;28;20037;-84
2020/12/05 12:12:06;;;;;;;25.80;13.18;;;1.70;63.00;;;;;;5016626;28;20362;-83
2020/12/05 12:14:33;;;;;;;26.58;13.32;;;1.70;63.00;;;;;;5033606;28;20060;-82
2020/12/05 12:16:59;;;;;;;23.77;12.35;;;1.70;63.10;;;;;;5034350;28;20029;-79
2020/12/05 12:19:24;;;;;;;20.58;10.65;;;1.80;63.20;;;;;;5032890;28;20078;-80
2020/12/05 12:21:50;;;;;;;28.48;13.00;;;1.90;63.20;;;;;;5033352;28;20034;-82
2020/12/05 12:24:16;;;;;;;21.67;10.45;;;2.00;63.50;;;;;;5033922;28;20374;-79
2020/12/05 12:26:42;;;;;;;24.00;11.32;;;2.10;63.70;;;;;;5033818;28;20030;-80
2020/12/05 12:29:08;;;;;;;19.52;11.00;;;2.10;63.90;;;;;;5034546;28;20527;-82
2020/12/05 12:31:34;;;;;;;21.42;10.95;;;2.20;64.20;;;;;;5033929;28;20377;-83
2020/12/05 12:34:00;;;;;;;20.95;11.23;;;2.20;64.20;;;;;;5033985;28;20480;-83
2020/12/05 12:36:26;;;;;;;23.38;11.57;;;2.20;64.40;;;;;;5017819;28;20028;-81
2020/12/05 12:38:52;;;;;;;20.85;10.63;;;2.20;64.60;;;;;;5034435;28;20036;-85
2020/12/05 12:41:19;;;;;;;21.27;10.70;;;2.20;64.50;;;;;;5034436;28;20030;-82
2020/12/05 12:43:47;;;;;;;24.25;11.70;;;2.30;64.70;;;;;;5033256;28;20025;-80
2020/12/05 12:46:14;;;;;;;20.55;9.68;;;2.30;64.90;;;;;;5038577;28;20085;-87
2020/12/05 12:48:40;;;;;;;19.15;10.88;;;2.30;64.90;;;;;;5047037;28;20041;-88